sensor_id;sensor_type;location;lat;lon;timestamp;temperature;humidity
27870;DHT22;15225;50.730;4.244;2022-10-23T18:47:37;16.10;27.70
27870;DHT22;15225;50.730;4.244;2022-10-23T18:50:05;18.40;1.00
27870;DHT22;15225;50.730;4.244;2022-10-23T18:52:31;18.40;1.00
27870;DHT22;15225;50.730;4.244;2022-10-23T18:54:57;18.10;99.90
27870;DHT22;15225;50.730;4.244;2022-10-23T18:57:23;17.90;1.00
27870;DHT22;15225;50.730;4.244;2022-10-23T18:59:50;18.10;1.00
27870;DHT22;15225;50.730;4.244;2022-10-23T19:02:21;18.30;1.00
27870;DHT22;15225;50.730;4.244;2022-10-23T19:08:10;18.50;99.90
27870;DHT22;15225;50.730;4.244;2022-10-23T19:10:35;18.20;99.90
27870;DHT22;15225;50.730;4.244;2022-10-23T19:13:02;17.20;1.00
27870;DHT22;15225;50.730;4.244;2022-10-23T19:15:28;17.10;1.00
27870;DHT22;15225;50.730;4.244;2022-10-23T19:17:54;17.20;1.00
27870;DHT22;15225;50.730;4.244;2022-10-23T19:20:20;17.40;1.00
27870;DHT22;15225;50.730;4.244;2022-10-23T19:22:51;17.70;1.00
27870;DHT22;15225;50.730;4.244;2022-10-23T19:25:26;17.70;1.00
27870;DHT22;15225;50.730;4.244;2022-10-23T19:27:54;17.60;1.00
27870;DHT22;15225;50.730;4.244;2022-10-23T19:30:24;17.50;1.00
27870;DHT22;15225;50.730;4.244;2022-10-23T19:32:51;17.80;1.00
27870;DHT22;15225;50.730;4.244;2022-10-23T19:35:31;18.00;1.00
27870;DHT22;15225;50.730;4.244;2022-10-23T19:37:57;17.90;1.00
27870;DHT22;15225;50.730;4.244;2022-10-23T19:40:26;17.10;1.00
27870;DHT22;15225;50.730;4.244;2022-10-23T19:42:52;17.00;1.00
27870;DHT22;15225;50.730;4.244;2022-10-23T19:45:19;17.40;1.00
27870;DHT22;15225;50.730;4.244;2022-10-23T19:47:44;17.70;1.00
27870;DHT22;15225;50.730;4.244;2022-10-23T19:50:13;17.80;1.00
27870;DHT22;15225;50.730;4.244;2022-10-23T19:52:39;17.70;1.00
27870;DHT22;15225;50.730;4.244;2022-10-23T19:55:08;17.80;1.00
27870;DHT22;15225;50.730;4.244;2022-10-23T19:57:55;18.10;1.00
27870;DHT22;15225;50.730;4.244;2022-10-23T20:00:23;18.10;1.00
27870;DHT22;15225;50.730;4.244;2022-10-23T20:02:49;18.20;1.00
27870;DHT22;15225;50.730;4.244;2022-10-23T20:05:21;18.30;1.00
27870;DHT22;15225;50.730;4.244;2022-10-23T20:08:07;18.30;1.00
27870;DHT22;15225;50.730;4.244;2022-10-23T20:10:33;18.50;99.90
27870;DHT22;15225;50.730;4.244;2022-10-23T20:13:04;18.50;99.90
27870;DHT22;15225;50.730;4.244;2022-10-23T20:15:30;18.50;99.90
27870;DHT22;15225;50.730;4.244;2022-10-23T20:17:55;18.60;99.90
27870;DHT22;15225;50.730;4.244;2022-10-23T20:20:27;18.60;99.90
27870;DHT22;15225;50.730;4.244;2022-10-23T20:22:53;18.70;99.90
27870;DHT22;15225;50.730;4.244;2022-10-23T20:25:22;18.70;99.90
27870;DHT22;15225;50.730;4.244;2022-10-23T20:27:48;18.70;99.90
27870;DHT22;15225;50.730;4.244;2022-10-23T20:30:14;18.70;99.90
27870;DHT22;15225;50.730;4.244;2022-10-23T20:32:39;19.00;99.90
27870;DHT22;15225;50.730;4.244;2022-10-23T20:35:06;19.20;3.70
27870;DHT22;15225;50.730;4.244;2022-10-23T20:37:32;19.20;99.90
27870;DHT22;15225;50.730;4.244;2022-10-23T20:39:58;19.20;99.90
27870;DHT22;15225;50.730;4.244;2022-10-23T20:42:24;19.20;99.90
27870;DHT22;15225;50.730;4.244;2022-10-23T20:44:50;19.10;99.90
27870;DHT22;15225;50.730;4.244;2022-10-23T20:47:15;19.10;1.00
27870;DHT22;15225;50.730;4.244;2022-10-23T20:49:41;19.20;1.00
27870;DHT22;15225;50.730;4.244;2022-10-23T20:52:20;19.30;18.00
27870;DHT22;15225;50.730;4.244;2022-10-23T20:55:19;19.30;99.90
27870;DHT22;15225;50.730;4.244;2022-10-23T20:57:56;19.40;1.00
27870;DHT22;15225;50.730;4.244;2022-10-23T21:00:30;19.40;99.90
27870;DHT22;15225;50.730;4.244;2022-10-23T21:03:00;19.30;1.00
27870;DHT22;15225;50.730;4.244;2022-10-23T21:05:28;19.30;1.00
27870;DHT22;15225;50.730;4.244;2022-10-23T21:07:54;19.30;99.90
27870;DHT22;15225;50.730;4.244;2022-10-23T21:10:20;19.40;1.00
27870;DHT22;15225;50.730;4.244;2022-10-23T21:12:48;19.40;99.90
27870;DHT22;15225;50.730;4.244;2022-10-23T21:15:16;19.30;99.90
27870;DHT22;15225;50.730;4.244;2022-10-23T21:17:45;19.40;16.80
27870;DHT22;15225;50.730;4.244;2022-10-23T21:20:15;19.40;1.00
27870;DHT22;15225;50.730;4.244;2022-10-23T21:22:44;19.30;99.90
27870;DHT22;15225;50.730;4.244;2022-10-23T21:25:10;19.30;42.50
27870;DHT22;15225;50.730;4.244;2022-10-23T21:30:48;19.30;1.00
27870;DHT22;15225;50.730;4.244;2022-10-23T21:33:14;19.30;1.00
